• Join FlightAware (Why Join?)
  • Login
  • US Flag 
12:30PM EST


 

Airport Tracker/Info


-or-


 

Live Flight TrackerFlight Track Log ✈ AAL1326 ✈ 05-May-2013 ✈ KORD - KFLL

Flight Track Log - Related Links

Times and Time Zones

All times are in EDT time to prevent confusion due to time zone crossing. See the AAL1326 flight status page for this flight to view local times or setup timezone preferences in your user account.

Time Position Orientation Groundspeed Altitude Reporting Facility
EDT Latitude Longitude Course Direction KTS MPH feet Rate Location/Type
06:55PM 41.9840 -87.8850 90° East 166 191 1,000  Level FlightAware
06:56PM 41.9770 -87.8630 113° Southeast 169 194 2,200 2,280 Climbing FlightAware
06:56PM 41.9550 -87.8390 141° Southeast 217 250 3,100 2,040 Climbing FlightAware
06:57PM 41.9340 -87.8160 141° Southeast 244 281 4,100 2,040 Climbing FlightAware
06:57PM 41.9070 -87.7870 141° Southeast 255 293 5,000 1,200 Climbing FlightAware
06:58PM 41.8890 -87.7800 164° South 261 300 5,000  Level FlightAware
06:58PM 41.8600 -87.7790 179° South 262 302 5,000  Level FlightAware
06:58PM 41.8240 -87.7800 181° South 261 300 5,000 660 Level FlightAware
06:59PM 41.8040 -87.7810 182° South 267 307 5,500 2,820 Climbing FlightAware
06:59PM 41.7740 -87.7810 180° South 268 308 6,900 3,360 Climbing FlightAware
07:00PM 41.7370 -87.7780 177° South 270 311 8,600 3,240 Climbing FlightAware
07:00PM 41.6860 -87.7690 172° South 288 331 10,700 2,400 Climbing FlightAware
07:01PM 41.6230 -87.7590 173° South 332 382 12,000 2,040 Climbing FlightAware
07:02PM 41.5600 -87.7420 169° South 351 404 13,600 2,640 Climbing FlightAware
07:02PM 41.4860 -87.7150 165° South 364 419 15,800 2,520 Climbing FlightAware
07:03PM 41.4200 -87.6900 164° South 379 436 17,200 2,220 Climbing FlightAware
07:04PM 41.3550 -87.6650 164° South 386 444 18,800 2,220 Climbing FlightAware
07:05PM 41.2750 -87.6340 164° South 400 460 20,400 2,160 Climbing FlightAware
07:05PM 41.2010 -87.6060 164° South 407 468 21,900 2,100 Climbing FlightAware
07:06PM 41.1300 -87.5790 164° South 410 472 23,200 1,920 Climbing FlightAware
07:06PM 41.0730 -87.5570 164° South 415 478 24,200 1,920 Climbing FlightAware
07:07PM 40.9900 -87.5250 164° South 421 484 25,600 1,740 Climbing FlightAware
07:08PM 40.9120 -87.4960 164° South 426 490 26,700 1,500 Climbing FlightAware
07:08PM 40.8580 -87.4760 164° South 431 496 27,400 1,440 Climbing FlightAware
07:09PM 40.7810 -87.4460 164° South 436 502 28,400 1,320 Climbing FlightAware
07:09PM 40.7280 -87.4270 165° South 439 505 29,000 1,440 Climbing FlightAware
07:10PM 40.6480 -87.3970 164° South 437 503 30,100 1,680 Climbing FlightAware
07:11PM 40.5710 -87.3680 164° South 431 496 31,300 1,740 Climbing FlightAware
07:12PM 40.4780 -87.3330 164° South 428 493 32,600 1,680 Climbing FlightAware
07:12PM 40.4310 -87.3160 165° South 425 489 33,300 1,860 Climbing FlightAware
07:13PM 40.3470 -87.2840 164° South 411 473 34,800 1,920 Climbing FlightAware
07:13PM 40.2770 -87.2580 164° South 396 456 36,100 1,740 Climbing FlightAware
07:14PM 40.2180 -87.2360 164° South 387 445 37,000 600 Climbing FlightAware
07:15PM 40.1320 -87.2050 165° South 389 448 37,000  Level FlightAware
07:15PM 40.0610 -87.1800 165° South 390 449 37,000  Level FlightAware
07:16PM 39.9820 -87.1530 165° South 389 448 37,000  Level FlightAware
07:17PM 39.9140 -87.1260 163° South 389 448 37,000  Level FlightAware
07:18PM 39.8490 -87.1020 164° South 389 448 37,000  Level FlightAware
07:18PM 39.7810 -87.0760 164° South 389 448 37,000  Level FlightAware
07:19PM 39.6730 -87.0360 164° South 387 445 37,000  Level FlightAware
07:20PM 39.5930 -87.0080 165° South 388 447 37,000  Level FlightAware
07:21PM 39.5250 -86.9830 164° South 390 449 37,000  Level FlightAware
07:21PM 39.4520 -86.9570 165° South 391 450 37,000  Level FlightAware
07:22PM 39.3740 -86.9280 164° South 393 452 37,000  Level FlightAware
07:23PM 39.3040 -86.9030 165° South 394 453 37,000  Level FlightAware
07:23PM 39.2340 -86.8780 165° South 393 452 37,000  Level FlightAware
07:24PM 39.1580 -86.8460 162° South 390 449 37,000  Level FlightAware
07:25PM 39.0940 -86.8030 152° Southeast 390 449 37,000  Level FlightAware
07:25PM 39.0460 -86.7710 153° Southeast 392 451 37,000  Level FlightAware
07:26PM 38.9860 -86.7300 152° Southeast 394 453 37,000  Level FlightAware
07:27PM 38.9090 -86.6780 152° Southeast 396 456 37,000  Level FlightAware
07:27PM 38.8430 -86.6340 153° Southeast 398 458 37,000  Level FlightAware
07:28PM 38.7720 -86.5860 152° Southeast 396 456 37,000  Level FlightAware
07:29PM 38.7060 -86.5410 152° Southeast 395 455 37,000  Level FlightAware
07:29PM 38.6430 -86.4990 152° Southeast 397 457 37,000  Level FlightAware
07:30PM 38.5760 -86.4540 152° Southeast 400 460 37,000  Level FlightAware
07:31PM 38.5010 -86.4040 152° Southeast 404 465 37,000  Level FlightAware
07:32PM 38.4340 -86.3600 153° Southeast 407 468 37,000  Level FlightAware
07:32PM 38.3570 -86.3090 153° Southeast 411 473 37,000  Level FlightAware
07:33PM 38.3160 -86.2810 152° Southeast 414 476 37,000  Level FlightAware
07:33PM 38.2380 -86.2300 153° Southeast 417 480 37,000  Level FlightAware
07:34PM 38.1680 -86.1840 153° Southeast 420 483 37,000  Level FlightAware
07:35PM 38.0980 -86.1380 153° Southeast 423 487 37,000  Level FlightAware
07:36PM 38.0230 -86.0890 153° Southeast 425 489 37,000  Level FlightAware
07:36PM 37.9500 -86.0410 153° Southeast 418 481 37,000  Level FlightAware
07:37PM 37.8770 -85.9920 152° Southeast 417 480 37,000  Level FlightAware
07:38PM 37.8080 -85.9470 153° Southeast 418 481 37,000  Level FlightAware
07:38PM 37.7390 -85.9020 153° Southeast 421 484 37,000  Level FlightAware
07:39PM 37.6780 -85.8630 153° Southeast 423 487 37,000  Level FlightAware
07:39PM 37.6485 -85.8438 153° Southeast 424 488 37,000  Level FlightAware ADS-B
07:40PM 37.5990 -85.8120 153° Southeast 426 490 37,000  Level FlightAware
07:40PM 37.5252 -85.7642 153° Southeast 428 493 37,000  Level FlightAware ADS-B
07:41PM 37.4662 -85.7258 153° Southeast 429 494 37,000  Level FlightAware ADS-B
07:41PM 37.4035 -85.6851 153° Southeast 431 496 37,000  Level FlightAware ADS-B
07:42PM 37.3220 -85.6330 153° Southeast 431 496 37,000  Level FlightAware
07:43PM 37.2260 -85.5710 153° Southeast 430 495 37,000  Level FlightAware
07:44PM 37.1786 -85.5407 153° Southeast 431 496 37,000  Level FlightAware ADS-B
07:44PM 37.1254 -85.5066 153° Southeast 430 495 37,000  Level FlightAware ADS-B
07:45PM 37.0661 -85.4689 153° Southeast 431 496 37,000  Level FlightAware ADS-B
07:45PM 37.0100 -85.4330 153° Southeast 430 495 37,000  Level FlightAware
07:45PM 36.9784 -85.4130 153° Southeast 430 495 37,000  Level FlightAware ADS-B
07:46PM 36.9249 -85.3790 153° Southeast 430 495 37,000  Level FlightAware ADS-B
07:46PM 36.8709 -85.3448 153° Southeast 429 494 37,000  Level FlightAware ADS-B
07:47PM 36.8100 -85.3060 153° Southeast 426 490 37,000  Level FlightAware
07:47PM 36.7606 -85.2748 153° Southeast 429 494 37,000  Level FlightAware ADS-B
07:48PM 36.7074 -85.2412 153° Southeast 424 488 37,000  Level FlightAware ADS-B
07:48PM 36.6543 -85.2076 153° Southeast 424 488 37,000  Level FlightAware ADS-B
07:49PM 36.5824 -85.1742 160° South 425 489 37,000  Level FlightAware ADS-B
07:50PM 36.5217 -85.1582 168° South 427 491 37,000  Level FlightAware ADS-B
07:50PM 36.4540 -85.1407 168° South 427 491 37,000  Level FlightAware ADS-B
07:51PM 36.3936 -85.1250 168° South 427 491 37,000  Level FlightAware ADS-B
07:51PM 36.3339 -85.1098 168° South 427 491 37,000  Level FlightAware ADS-B
07:52PM 36.2533 -85.0891 168° South 429 494 37,000  Level FlightAware ADS-B
07:52PM 36.1938 -85.0738 168° South 433 498 37,000  Level FlightAware ADS-B
07:53PM 36.1320 -85.0580 168° South 433 498 37,000  Level FlightAware ADS-B
07:54PM 36.0723 -85.0426 168° South 432 497 37,000  Level FlightAware ADS-B
07:54PM 35.9847 -85.0200 168° South 431 496 37,000  Level FlightAware ADS-B
07:55PM 35.9260 -85.0050 168° South 430 495 37,000  Level FlightAware ADS-B
07:55PM 35.8673 -84.9900 168° South 430 495 37,000  Level FlightAware ADS-B
07:56PM 35.8011 -84.9732 168° South 432 497 37,000  Level FlightAware ADS-B
07:56PM 35.7421 -84.9583 168° South 434 499 37,000  Level FlightAware ADS-B
07:57PM 35.6830 -84.9433 168° South 433 498 37,000  Level FlightAware ADS-B
07:57PM 35.6233 -84.9282 168° South 434 499 37,000  Level FlightAware ADS-B
07:58PM 35.5627 -84.9127 168° South 436 502 37,000  Level FlightAware ADS-B
07:58PM 35.5026 -84.8975 168° South 439 505 37,000  Level FlightAware ADS-B
07:59PM 35.4424 -84.8822 168° South 440 506 37,000  Level FlightAware ADS-B
07:59PM 35.3818 -84.8672 169° South 438 504 37,000  Level FlightAware ADS-B
08:00PM 35.3216 -84.8522 169° South 435 501 37,000  Level FlightAware ADS-B
08:00PM 35.2620 -84.8372 168° South 432 497 37,000 480 Level FlightAware ADS-B
08:01PM 35.2036 -84.8225 168° South 424 488 37,500 1,380 Climbing FlightAware ADS-B
08:01PM 35.1461 -84.8078 168° South 411 473 38,400 1,380 Climbing FlightAware ADS-B
08:02PM 35.0907 -84.7938 168° South 405 466 38,900 540 Climbing FlightAware ADS-B
08:02PM 35.0352 -84.7800 168° South 409 471 39,000 60 Climbing FlightAware ADS-B
08:03PM 34.9785 -84.7660 169° South 415 478 39,000  Level FlightAware ADS-B
08:03PM 34.9210 -84.7519 169° South 419 482 39,000  Level FlightAware ADS-B
08:04PM 34.8750 -84.7400 168° South 412 474 39,000  Level FlightAware
08:04PM 34.8422 -84.7322 169° South 421 484 39,000  Level FlightAware ADS-B
08:05PM 34.7910 -84.7190 168° South 414 476 39,000  Level FlightAware
08:05PM 34.7060 -84.6980 169° South 423 487 39,000  Level FlightAware
08:06PM 34.6300 -84.6800 169° South 414 476 39,000  Level FlightAware
08:07PM 34.5440 -84.6580 168° South 412 474 39,000  Level FlightAware
08:07PM 34.4680 -84.6390 168° South 411 473 39,000  Level FlightAware
08:08PM 34.4151 -84.6265 169° South 419 482 39,000  Level FlightAware ADS-B
08:08PM 34.3523 -84.6111 169° South 418 481 39,000  Level FlightAware ADS-B
08:12PM 33.9550 -84.5140 169° South 424 488 39,000  Level FlightAware
08:13PM 33.8790 -84.4910 166° South 422 486 39,000  Level FlightAware
08:14PM 33.6893 -84.4138 161° South 434 499 39,000  Level FlightAware ADS-B
08:15PM 33.6248 -84.3875 161° South 438 504 39,000  Level FlightAware ADS-B
08:15PM 33.5464 -84.3561 162° South 436 502 39,000  Level FlightAware ADS-B
08:16PM 33.4436 -84.3150 162° South 434 499 39,000  Level FlightAware ADS-B
08:18PM 33.2915 -84.2539 161° South 435 501 39,000  Level FlightAware ADS-B
08:18PM 33.2310 -84.2300 162° South 438 504 39,000  Level FlightAware
08:19PM 33.1570 -84.2000 161° South 437 503 39,000  Level FlightAware
08:20PM 33.0660 -84.1640 162° South 434 499 39,000  Level FlightAware
08:20PM 32.9910 -84.1340 161° South 434 499 39,000  Level FlightAware
08:21PM 32.9110 -84.1020 161° South 433 498 39,000  Level FlightAware
08:22PM 32.8360 -84.0720 161° South 433 498 39,000  Level FlightAware
08:22PM 32.7710 -84.0460 161° South 433 498 39,000  Level FlightAware
08:23PM 32.6910 -84.0130 161° South 433 498 39,000  Level FlightAware
08:24PM 32.5503 -83.9625 161° South 440 506 39,000  Level Atlanta Center
08:25PM 32.4375 -83.9183 162° South 440 506 39,000  Level Atlanta Center
08:26PM 32.3225 -83.8717 161° South 440 506 39,000  Level Atlanta Center
08:28PM 32.1153 -83.7903 162° South 440 506 39,000  Level Jacksonville Center
08:29PM 32.0008 -83.7450 161° South 440 506 39,000  Level Jacksonville Center
08:30PM 31.8864 -83.7000 162° South 440 506 39,000 -60 Level Jacksonville Center
08:31PM 31.7822 -83.6528 159° South 440 506 38,900  Descending Jacksonville Center
08:32PM 31.6633 -83.6103 163° South 440 506 39,000  Climbing Jacksonville Center
08:33PM 31.5425 -83.5678 163° South 446 513 39,000  Level Jacksonville Center
08:34PM 31.4281 -83.5256 163° South 440 506 39,000  Level Jacksonville Center
08:35PM 31.3133 -83.4836 163° South 435 501 39,000  Level Jacksonville Center
08:36PM 31.1986 -83.4392 162° South 435 501 39,000  Level Jacksonville Center
08:37PM 31.0861 -83.3972 162° South 435 501 39,000  Level Jacksonville Center
08:38PM 30.9714 -83.3531 162° South 435 501 39,000  Level Jacksonville Center
08:39PM 30.8567 -83.3064 161° South 435 501 39,000 -60 Level Jacksonville Center
08:40PM 30.7483 -83.2600 160° South 428 493 38,900 -60 Descending Jacksonville Center
08:41PM 30.6336 -83.2039 157° South 433 498 38,900  Level Jacksonville Center
08:42PM 30.5189 -83.1458 156° South 438 504 39,000  Climbing Jacksonville Center
08:43PM 30.4042 -83.0878 156° South 438 504 39,000  Level Jacksonville Center
08:44PM 30.2914 -83.0344 158° South 443 510 39,000  Level Jacksonville Center
08:50PM 29.5870 -82.6860 158° South 451 519 39,000  Level FlightAware
08:51PM 29.5030 -82.6450 157° South 450 518 39,000  Level FlightAware
08:52PM 29.4020 -82.5960 157° South 450 518 39,000  Level FlightAware
08:53PM 29.2900 -82.5420 157° South 448 516 39,000  Level FlightAware
08:53PM 29.2170 -82.5060 157° South 449 517 39,000  Level FlightAware
08:54PM 29.1250 -82.4620 157° South 447 514 39,000  Level FlightAware
08:55PM 29.0560 -82.4490 171° South 425 489 39,000  Level FlightAware
08:55PM 28.9710 -82.4540 183° South 422 486 39,000  Level FlightAware
08:56PM 28.8800 -82.4590 183° South 421 484 39,000  Level FlightAware
08:57PM 28.8040 -82.4630 183° South 420 483 39,000  Level FlightAware
08:57PM 28.7130 -82.4690 183° South 419 482 39,000  Level FlightAware
08:58PM 28.6360 -82.4730 183° South 418 481 39,000  Level FlightAware
08:59PM 28.5590 -82.4770 183° South 416 479 39,000  Level FlightAware
09:00PM 28.4730 -82.4820 183° South 416 479 39,000  Level FlightAware
09:00PM 28.3960 -82.4860 183° South 415 478 39,000  Level FlightAware
09:01PM 28.3200 -82.4910 183° South 414 476 39,000  Level FlightAware
09:02PM 28.2320 -82.4960 183° South 415 478 39,000  Level FlightAware
09:02PM 28.1580 -82.5000 183° South 417 480 39,000  Level FlightAware
09:03PM 28.0700 -82.5060 183° South 417 480 39,000  Level FlightAware
09:04PM 27.9930 -82.5100 183° South 422 486 39,000  Level FlightAware
09:04PM 27.9130 -82.4960 171° South 441 507 39,000  Level FlightAware
09:05PM 27.8240 -82.4630 162° South 447 514 39,000  Level FlightAware
09:06PM 27.7430 -82.4330 162° South 444 511 39,000  Level FlightAware
09:07PM 27.6580 -82.4010 162° South 440 506 39,000  Level FlightAware
09:07PM 27.5810 -82.3730 162° South 438 504 39,000  Level FlightAware
09:08PM 27.5040 -82.3450 162° South 438 504 39,000 -240 Level FlightAware
09:09PM 27.4170 -82.3130 162° South 434 499 38,700 -720 Descending FlightAware
09:09PM 27.3520 -82.2890 162° South 434 499 38,100 -960 Descending FlightAware
09:10PM 27.2610 -82.2560 162° South 442 509 37,400 -960 Descending FlightAware
09:11PM 27.1760 -82.2240 161° South 452 520 36,700 -960 Descending FlightAware
09:12PM 27.0560 -82.1060 139° Southeast 477 549 35,500 -1,200 Descending FlightAware
09:13PM 26.9750 -82.0090 133° Southeast 487 560 34,200 -2,580 Descending FlightAware
09:14PM 26.9040 -81.9270 134° Southeast 494 568 31,700 -3,060 Descending FlightAware
09:14PM 26.8430 -81.8540 133° Southeast 493 567 29,900 -2,340 Descending FlightAware
09:15PM 26.7700 -81.7640 132° Southeast 474 545 28,000 -2,820 Descending FlightAware
09:16PM 26.6940 -81.6720 133° Southeast 470 541 25,200 -3,600 Descending FlightAware
09:17PM 26.5950 -81.5550 133° Southeast 446 513 21,200 -3,360 Descending FlightAware
09:18PM 26.5220 -81.4660 133° Southeast 429 494 18,300 -3,060 Descending FlightAware
09:19PM 26.4640 -81.3960 133° Southeast 410 472 16,400 -2,640 Descending FlightAware
09:19PM 26.4060 -81.3260 133° Southeast 409 471 14,600 -2,280 Descending FlightAware
09:20PM 26.3540 -81.2650 134° Southeast 390 449 13,200 -2,160 Descending FlightAware
09:21PM 26.3000 -81.2010 133° Southeast 363 418 11,600 -1,920 Descending FlightAware
09:21PM 26.2560 -81.1470 132° Southeast 344 396 10,500 -1,200 Descending FlightAware
09:22PM 26.2140 -81.0970 133° Southeast 310 357 10,000 -960 Descending FlightAware
09:23PM 26.1850 -81.0630 134° Southeast 291 335 9,400 -1,440 Descending FlightAware
09:23PM 26.1570 -81.0300 133° Southeast 283 326 8,600 -1,800 Descending FlightAware
09:24PM 26.1340 -81.0030 133° Southeast 288 331 7,800 -1,860 Descending FlightAware
09:24PM 26.1090 -80.9690 129° Southeast 295 339 6,900 -1,740 Descending FlightAware
09:24PM 26.1030 -80.9460 106° East 299 344 6,500 -1,380 Descending FlightAware
09:25PM 26.1010 -80.9080 93° East 292 336 6,000 -600 Descending FlightAware
09:25PM 26.0970 -80.8640 96° East 287 330 6,000  Level FlightAware
09:26PM 26.0950 -80.8280 94° East 286 329 6,000  Level FlightAware
09:26PM 26.0920 -80.7820 94° East 286 329 6,000  Level FlightAware
09:27PM 26.0910 -80.7460 92° East 288 331 6,000  Level FlightAware
09:27PM 26.0950 -80.7010 84° East 289 333 6,000  Level FlightAware
09:27PM 26.0970 -80.6780 84° East 288 331 6,000  Level FlightAware
09:28PM 26.1020 -80.6350 83° East 288 331 6,000  Level FlightAware
09:28PM 26.1060 -80.5980 83° East 288 331 6,000  Level FlightAware
09:29PM 26.1100 -80.5550 84° East 287 330 6,000  Level FlightAware
09:29PM 26.1140 -80.5170 83° East 287 330 6,000  Level FlightAware
09:30PM 26.1180 -80.4720 84° East 287 330 6,000  Level FlightAware
09:30PM 26.1230 -80.4290 83° East 284 327 6,000  Level FlightAware
09:31PM 26.1270 -80.3930 83° East 283 326 6,000  Level FlightAware
09:31PM 26.1310 -80.3510 84° East 282 325 6,000  Level FlightAware
09:32PM 26.1360 -80.3020 84° East 282 325 6,000 -840 Level FlightAware
09:33PM 26.1450 -80.2010 84° East 281 323 4,600 -1,140 Descending FlightAware
09:34PM 26.1520 -80.0950 86° East 267 307 3,300 -840 Descending FlightAware
09:35PM 26.1410 -80.0110 98° East 212 244 2,700 -660 Descending FlightAware
09:38PM 26.0760 -80.0740 221° Southwest 149 171 1,100 -720 Descending FlightAware
09:38PM 26.0770 -80.1170 271° West 147 169 400 -600 Descending FlightAware
09:39PM 26.0770 -80.1400 270° West 147 169 300 -240 Descending FlightAware